Time;durP1;ratioP1;P1;durP2;ratioP2;P2;SDS_P1;SDS_P2;PMS_P1;PMS_P2;Temp;Humidity;BMP_temperature;BMP_pressure;BME280_temperature;BME280_humidity;BME280_pressure;Samples;Min_cycle;Max_cycle;Signal;HPM_P1;HPM_P2
2023/11/18 00:03:01;;;;;;;1999.90;999.90;;;;;;;13.00;66.81;102255.44;10291925;28;20043;-77
2023/11/18 00:08:04;;;;;;;1999.90;999.90;;;;;;;12.97;64.89;102263.44;10293316;28;20051;-77
2023/11/18 00:13:07;;;;;;;1999.90;999.90;;;;;;;13.07;65.11;102261.28;10291883;28;20090;-78
2023/11/18 00:18:09;;;;;;;1999.90;999.90;;;;;;;12.91;64.46;102261.09;10292943;28;20113;-77
2023/11/18 00:23:12;;;;;;;1999.90;999.90;;;;;;;12.96;65.98;102259.97;10291565;28;20501;-78
2023/11/18 00:28:15;;;;;;;1999.90;999.90;;;;;;;12.38;68.38;102250.19;10292214;28;20078;-77
2023/11/18 00:33:17;;;;;;;1999.90;999.90;;;;;;;13.06;64.39;102249.88;10292796;28;20043;-78
2023/11/18 00:38:19;;;;;;;1999.90;999.90;;;;;;;12.32;65.35;102236.47;10299043;28;20047;-78
2023/11/18 00:43:22;;;;;;;1999.90;999.90;;;;;;;12.54;64.97;102239.91;10298869;28;20051;-77
2023/11/18 00:48:25;;;;;;;1999.90;999.90;;;;;;;11.71;66.17;102245.88;10298597;28;20051;-78
2023/11/18 00:53:27;;;;;;;1999.90;999.90;;;;;;;11.85;66.24;102242.69;10298392;28;20058;-78
2023/11/18 00:58:29;;;;;;;1999.90;999.90;;;;;;;11.92;67.78;102246.84;10299649;28;20061;-78
2023/11/18 01:03:33;;;;;;;1999.90;999.90;;;;;;;11.79;66.27;102237.72;10299322;28;20130;-78
2023/11/18 01:08:36;;;;;;;1999.90;999.90;;;;;;;11.39;70.12;102261.06;10298218;28;20057;-78
2023/11/18 01:13:38;;;;;;;1999.90;999.90;;;;;;;11.48;67.46;102268.59;10298718;28;20047;-78
2023/11/18 01:18:41;;;;;;;1999.90;999.90;;;;;;;12.24;66.06;102263.06;10299039;28;20105;-78
2023/11/18 01:23:44;;;;;;;1999.90;999.90;;;;;;;11.65;65.60;102282.81;10297446;28;20046;-78
2023/11/18 01:28:47;;;;;;;1999.90;999.90;;;;;;;11.78;65.51;102280.59;10297100;28;20051;-78
2023/11/18 01:33:50;;;;;;;1999.90;999.90;;;;;;;11.30;66.93;102280.63;10297115;28;20046;-78
2023/11/18 01:38:55;;;;;;;1999.90;999.90;;;;;;;11.38;69.36;102285.59;10296715;28;20065;-78
2023/11/18 01:43:57;;;;;;;1999.90;999.90;;;;;;;10.93;70.80;102291.59;10296424;28;20384;-78
2023/11/18 01:48:59;;;;;;;1999.90;999.90;;;;;;;11.68;69.64;102280.09;10295813;28;20054;-78
2023/11/18 01:54:03;;;;;;;1999.90;999.90;;;;;;;11.20;70.59;102268.75;10297307;28;20486;-78
2023/11/18 01:59:09;;;;;;;1999.90;999.90;;;;;;;10.97;72.87;102273.06;10296039;28;20046;-77
2023/11/18 02:04:12;;;;;;;1999.90;999.90;;;;;;;11.01;72.35;102270.31;10295843;28;20050;-78
2023/11/18 02:09:17;;;;;;;1999.90;999.90;;;;;;;11.20;72.82;102258.28;10295774;28;20085;-77
2023/11/18 02:14:22;;;;;;;1999.90;999.90;;;;;;;11.14;73.41;102264.56;10296354;28;20043;-78
2023/11/18 02:19:25;;;;;;;1999.90;999.90;;;;;;;11.07;74.23;102246.53;10296824;28;20548;-77
2023/11/18 02:24:29;;;;;;;1999.90;999.90;;;;;;;10.90;73.83;102252.38;10294923;28;20054;-77
2023/11/18 02:29:37;;;;;;;1999.90;999.90;;;;;;;10.29;78.99;102264.00;10295291;28;20050;-77
2023/11/18 02:34:44;;;;;;;1999.90;999.90;;;;;;;10.60;77.88;102263.00;10295129;28;20050;-76
2023/11/18 02:39:51;;;;;;;1999.90;999.90;;;;;;;10.98;76.54;102268.69;10294450;28;20054;-77
2023/11/18 02:44:59;;;;;;;1999.90;999.90;;;;;;;11.04;76.46;102272.84;10294122;28;20051;-77
2023/11/18 02:50:05;;;;;;;1999.90;999.90;;;;;;;11.17;73.39;102265.41;10263891;28;20101;-77
2023/11/18 02:55:08;;;;;;;1999.90;999.90;;;;;;;10.78;75.78;102256.28;10293628;28;20050;-77
2023/11/18 03:00:18;;;;;;;1999.90;999.90;;;;;;;11.05;76.08;102251.81;10293832;28;20409;-77
2023/11/18 03:05:21;;;;;;;1999.90;999.90;;;;;;;10.65;77.96;102237.50;10293892;28;20050;-77
2023/11/18 03:10:23;;;;;;;1999.90;999.90;;;;;;;10.68;76.12;102240.03;10277425;28;20518;-78
2023/11/18 03:15:27;;;;;;;1999.90;999.90;;;;;;;10.49;77.19;102224.09;10293253;28;20076;-77
2023/11/18 03:20:30;;;;;;;1999.90;999.90;;;;;;;10.71;77.31;102239.09;10277834;28;20078;-77
2023/11/18 03:25:32;;;;;;;1999.90;999.90;;;;;;;10.64;76.88;102235.81;10294224;28;20047;-77
2023/11/18 03:30:37;;;;;;;1999.90;999.90;;;;;;;10.75;76.90;102248.53;10293441;28;20055;-77
2023/11/18 03:35:39;;;;;;;1999.90;999.90;;;;;;;10.45;79.33;102232.97;10293155;28;20047;-78
2023/11/18 03:40:42;;;;;;;1999.90;999.90;;;;;;;11.03;74.95;102248.41;10294006;28;20057;-78
2023/11/18 03:45:44;;;;;;;1999.90;999.90;;;;;;;10.44;77.10;102238.25;10292912;28;20053;-78
2023/11/18 03:50:46;;;;;;;1999.90;999.90;;;;;;;10.05;79.52;102234.22;10292635;28;20055;-77
2023/11/18 03:55:50;;;;;;;1999.90;999.90;;;;;;;10.66;78.09;102220.03;10276485;28;20105;-77
2023/11/18 04:00:53;;;;;;;1999.90;999.90;;;;;;;11.41;74.96;102205.94;10293439;28;20529;-77
2023/11/18 04:05:56;;;;;;;1999.90;999.90;;;;;;;10.69;76.09;102196.34;10292509;28;20071;-77
2023/11/18 04:10:58;;;;;;;1999.90;999.90;;;;;;;11.41;73.72;102187.59;10298643;28;20058;-77
2023/11/18 04:16:00;;;;;;;1999.90;999.90;;;;;;;11.67;71.73;102170.84;10301228;28;20078;-77
2023/11/18 04:21:03;;;;;;;1999.90;999.90;;;;;;;11.79;70.57;102174.72;10299783;28;20061;-77
2023/11/18 04:26:07;;;;;;;1999.90;999.90;;;;;;;10.62;75.29;102169.50;10299835;28;20053;-76
2023/11/18 04:31:09;;;;;;;1999.90;999.90;;;;;;;11.59;73.51;102157.16;10299901;28;20126;-78
2023/11/18 04:36:13;;;;;;;1999.90;999.90;;;;;;;11.53;72.90;102146.00;10300261;28;20101;-78
2023/11/18 04:41:16;;;;;;;1999.90;999.90;;;;;;;11.38;74.03;102124.75;10300231;28;20133;-78
2023/11/18 04:46:19;;;;;;;1999.90;999.90;;;;;;;11.60;71.47;102116.88;10300150;28;20050;-77
2023/11/18 04:51:25;;;;;;;1999.90;999.90;;;;;;;10.48;76.23;102125.50;10298326;28;20149;-77
2023/11/18 04:56:27;;;;;;;1999.90;999.90;;;;;;;10.95;76.07;102115.03;10282764;28;20050;-77
2023/11/18 05:01:30;;;;;;;1999.90;999.90;;;;;;;10.87;75.59;102122.31;10298664;28;20046;-77
2023/11/18 05:06:32;;;;;;;1999.90;999.90;;;;;;;12.06;74.13;102115.00;10298593;28;20054;-77
2023/11/18 05:11:35;;;;;;;1999.90;999.90;;;;;;;11.13;74.80;102112.63;10299197;28;20051;-77
2023/11/18 05:16:39;;;;;;;1999.90;999.90;;;;;;;10.63;75.94;102118.84;10281848;28;20050;-77
2023/11/18 05:21:41;;;;;;;1999.90;999.90;;;;;;;12.04;72.63;102114.22;10296626;28;20078;-78
2023/11/18 05:26:44;;;;;;;1999.90;999.90;;;;;;;11.66;74.11;102116.66;10297891;28;20126;-77
2023/11/18 05:31:46;;;;;;;1999.90;999.90;;;;;;;11.72;72.62;102140.00;10297089;28;20458;-77
2023/11/18 05:36:54;;;;;;;1999.90;999.90;;;;;;;12.45;69.65;102108.94;10298045;28;20071;-77
2023/11/18 05:41:56;;;;;;;1999.90;999.90;;;;;;;11.78;72.61;102082.00;10297733;28;20541;-77
2023/11/18 05:46:59;;;;;;;1999.90;999.90;;;;;;;11.95;71.57;102077.88;10297448;28;20061;-77
2023/11/18 05:52:02;;;;;;;1999.90;999.90;;;;;;;11.83;71.34;102079.22;10296308;28;20064;-78
2023/11/18 05:57:04;;;;;;;1999.90;999.90;;;;;;;11.49;73.65;102078.00;10295911;28;20504;-77
2023/11/18 06:02:07;;;;;;;1999.90;999.90;;;;;;;12.02;72.45;102072.28;10297223;28;20074;-77
2023/11/18 06:07:13;;;;;;;1999.90;999.90;;;;;;;11.49;71.38;102072.75;10295560;28;20379;-77
2023/11/18 06:12:17;;;;;;;1999.90;999.90;;;;;;;11.97;71.97;102071.66;10280387;28;20486;-77
2023/11/18 06:17:20;;;;;;;1999.90;999.90;;;;;;;11.76;72.88;102068.13;10296618;28;20057;-78
2023/11/18 06:22:22;;;;;;;1999.90;999.90;;;;;;;11.41;73.85;102069.56;10296202;28;20051;-77
2023/11/18 06:27:27;;;;;;;1999.90;999.90;;;;;;;10.71;76.08;102055.72;10294983;28;20068;-77
2023/11/18 06:32:30;;;;;;;1999.90;999.90;;;;;;;11.54;74.10;102068.16;10294507;28;20133;-77
2023/11/18 06:37:34;;;;;;;1999.90;999.90;;;;;;;12.24;71.11;102071.38;10295481;28;20046;-77
2023/11/18 06:42:37;;;;;;;1999.90;999.90;;;;;;;12.04;71.69;102059.94;10294316;28;20066;-77
2023/11/18 06:47:43;;;;;;;1999.90;999.90;;;;;;;11.92;73.61;102060.50;10295165;28;20047;-77
2023/11/18 06:52:45;;;;;;;1999.90;999.90;;;;;;;12.15;70.27;102072.59;10294768;28;20387;-77
2023/11/18 06:57:49;;;;;;;1999.90;999.90;;;;;;;11.79;72.34;102081.09;10294930;28;20086;-77
2023/11/18 07:02:54;;;;;;;1999.90;999.90;;;;;;;11.44;72.80;102065.06;10294136;28;20063;-76
2023/11/18 07:07:57;;;;;;;1999.90;999.90;;;;;;;11.18;76.26;102054.75;10294534;28;20563;-77
2023/11/18 07:12:59;;;;;;;1999.90;999.90;;;;;;;11.60;72.10;102064.41;10293359;28;20062;-77
2023/11/18 07:18:02;;;;;;;1999.90;999.90;;;;;;;11.28;74.33;102054.34;10293525;28;20085;-78
2023/11/18 07:23:05;;;;;;;1999.90;999.90;;;;;;;11.43;75.13;102046.75;10294811;28;20063;-76
2023/11/18 07:28:08;;;;;;;1999.90;999.90;;;;;;;11.35;75.31;102047.09;10292977;28;20406;-78
2023/11/18 07:33:11;;;;;;;1999.90;999.90;;;;;;;11.28;74.46;102046.47;10294087;28;20066;-77
2023/11/18 07:38:14;;;;;;;1999.90;999.90;;;;;;;11.37;72.84;102047.03;10293022;28;20051;-77
2023/11/18 07:43:16;;;;;;;1999.90;999.90;;;;;;;11.41;74.05;102049.44;10292201;28;20051;-77
2023/11/18 07:48:20;;;;;;;1999.90;999.90;;;;;;;11.81;71.60;102060.06;10293814;28;20121;-77
2023/11/18 07:53:22;;;;;;;1999.90;999.90;;;;;;;11.55;72.58;102072.50;10292440;28;20134;-77
2023/11/18 07:58:27;;;;;;;1999.90;999.90;;;;;;;11.28;75.59;102075.31;10293478;28;20050;-77
2023/11/18 08:03:31;;;;;;;1999.90;999.90;;;;;;;11.76;71.92;102067.28;10292558;28;20486;-77
2023/11/18 08:08:34;;;;;;;1999.90;999.90;;;;;;;11.65;73.49;102072.94;10356179;22;20077;-78
2023/11/18 08:13:36;;;;;;;1999.90;999.90;;;;;;;11.47;73.81;102079.81;10374321;28;20547;-77
2023/11/18 08:18:39;;;;;;;1999.90;999.90;;;;;;;11.95;71.63;102068.22;10373048;28;20081;-77
2023/11/18 08:23:41;;;;;;;1999.90;999.90;;;;;;;11.68;73.02;102047.47;10373976;28;20045;-78
2023/11/18 08:28:43;;;;;;;1999.90;999.90;;;;;;;11.56;73.88;102044.50;10372980;28;20100;-77
2023/11/18 08:33:46;;;;;;;1999.90;999.90;;;;;;;11.64;72.93;102043.25;10389006;28;20046;-77
2023/11/18 08:38:49;;;;;;;1999.90;999.90;;;;;;;11.40;74.39;102021.53;10372666;28;20053;-77
2023/11/18 08:43:52;;;;;;;1999.90;999.90;;;;;;;11.47;75.40;102012.47;10373436;28;20424;-77
2023/11/18 08:48:55;;;;;;;1999.90;999.90;;;;;;;12.17;72.30;101999.03;10372283;28;20069;-78
2023/11/18 08:53:58;;;;;;;1999.90;999.90;;;;;;;11.19;75.91;101978.69;10372670;28;20054;-77
2023/11/18 08:59:01;;;;;;;1999.90;999.90;;;;;;;11.53;73.81;101977.25;10378929;28;20064;-77
2023/11/18 09:04:03;;;;;;;1999.90;999.90;;;;;;;12.18;74.32;101982.34;10379249;28;20116;-77
2023/11/18 09:09:11;;;;;;;1999.90;999.90;;;;;;;11.47;75.37;101967.06;10379537;28;20137;-77
2023/11/18 09:14:14;;;;;;;1999.90;999.90;;;;;;;12.20;74.88;101970.84;10379176;28;20500;-78
2023/11/18 09:19:17;;;;;;;1999.90;999.90;;;;;;;11.86;73.65;101966.25;10378507;28;20100;-78
2023/11/18 09:24:24;;;;;;;1999.90;999.90;;;;;;;11.95;74.95;101967.63;10377954;28;20042;-78
2023/11/18 09:29:27;;;;;;;1999.90;999.90;;;;;;;11.89;73.85;101950.38;10379632;28;20107;-78
2023/11/18 09:34:33;;;;;;;1999.90;999.90;;;;;;;13.11;72.10;101942.03;10378872;28;20046;-78
2023/11/18 09:39:38;;;;;;;1999.90;999.90;;;;;;;11.65;75.23;101941.78;10379121;28;20046;-78
2023/11/18 09:44:41;;;;;;;1999.90;999.90;;;;;;;12.22;73.22;101934.91;10377476;28;20568;-78
2023/11/18 09:49:50;;;;;;;1999.90;999.90;;;;;;;12.41;73.47;101937.50;10377568;28;20074;-78
2023/11/18 09:54:52;;;;;;;1999.90;999.90;;;;;;;13.06;70.79;101915.97;10377220;28;20560;-78
2023/11/18 09:59:58;;;;;;;1999.90;999.90;;;;;;;12.69;73.97;101893.31;10393647;28;20050;-79
2023/11/18 10:05:02;;;;;;;1999.90;999.90;;;;;;;12.38;71.76;101885.13;10378314;28;20054;-78
2023/11/18 10:10:14;;;;;;;1999.90;999.90;;;;;;;12.66;72.12;101885.56;10376154;28;20058;-79
2023/11/18 10:15:23;;;;;;;1999.90;999.90;;;;;;;12.91;70.76;101885.19;10377599;28;20069;-79
2023/11/18 10:20:45;;;;;;;1999.90;999.90;;;;;;;12.41;74.03;101874.47;10376204;28;20064;-78
2023/11/18 10:25:49;;;;;;;1999.90;999.90;;;;;;;12.61;72.14;101868.25;10376894;28;20495;-79
2023/11/18 10:30:52;;;;;;;1999.90;999.90;;;;;;;12.64;73.07;101852.34;10375660;28;20058;-78
2023/11/18 10:35:55;;;;;;;1999.90;999.90;;;;;;;12.95;72.92;101848.19;10376778;28;20045;-79
2023/11/18 10:41:01;;;;;;;1999.90;999.90;;;;;;;13.13;71.65;101858.66;10376509;28;20054;-78
2023/11/18 10:46:11;;;;;;;1999.90;999.90;;;;;;;12.79;74.68;101856.00;10375282;28;20052;-79
2023/11/18 10:51:19;;;;;;;1999.90;999.90;;;;;;;13.15;73.50;101849.78;10374810;28;20050;-79
2023/11/18 10:56:28;;;;;;;1999.90;999.90;;;;;;;12.71;73.29;101845.03;10374557;28;20054;-79
2023/11/18 11:01:32;;;;;;;1999.90;999.90;;;;;;;13.32;71.15;101841.06;10375659;28;20050;-79
2023/11/18 11:06:35;;;;;;;1999.90;999.90;;;;;;;13.09;73.39;101844.84;10390346;28;20100;-79
2023/11/18 11:11:42;;;;;;;1999.90;999.90;;;;;;;13.37;71.61;101831.16;10374243;28;20049;-79
2023/11/18 11:16:53;;;;;;;1999.90;999.90;;;;;;;14.26;70.68;101835.13;10374043;28;20072;-80
2023/11/18 11:22:15;;;;;;;1999.90;999.90;;;;;;;13.43;71.56;101832.63;10373174;28;20404;-79
2023/11/18 11:27:28;;;;;;;1999.90;999.90;;;;;;;13.01;74.21;101807.56;10373971;28;20089;-80
2023/11/18 11:32:39;;;;;;;1999.90;999.90;;;;;;;13.15;75.38;101777.97;10389873;28;20064;-81
2023/11/18 11:37:42;;;;;;;1999.90;999.90;;;;;;;12.78;74.74;101769.34;10373240;28;20075;-81
2023/11/18 11:42:44;;;;;;;1999.90;999.90;;;;;;;13.16;75.66;101764.72;10374464;28;20405;-81
2023/11/18 11:47:50;;;;;;;1999.90;999.90;;;;;;;12.80;76.59;101731.53;10372997;28;20508;-81
2023/11/18 11:53:07;;;;;;;1999.90;999.90;;;;;;;13.00;76.08;101690.22;10373051;28;20054;-80
2023/11/18 11:58:27;;;;;;;1999.90;999.90;;;;;;;13.32;74.93;101688.50;10373652;28;20081;-82
2023/11/18 12:03:36;;;;;;;1999.90;999.90;;;;;;;13.55;76.21;101665.38;10389431;28;20060;-82
2023/11/18 12:08:39;;;;;;;1999.90;999.90;;;;;;;13.15;75.98;101655.22;10374310;28;20416;-83
2023/11/18 12:14:12;;;;;;;1999.90;999.90;;;;;;;13.43;76.83;101634.47;10372983;28;20056;-84
2023/11/18 12:19:47;;;;;;;1999.90;999.90;;;;;;;13.31;77.96;101631.53;10373476;28;20050;-82
2023/11/18 12:25:04;;;;;;;1999.90;999.90;;;;;;;13.68;75.48;101620.75;10374094;28;20050;-81
2023/11/18 12:30:57;;;;;;;1999.90;999.90;;;;;;;13.87;76.65;101615.28;10376305;28;20129;-81
2023/11/18 12:36:14;;;;;;;1999.90;999.90;;;;;;;14.16;76.80;101596.94;10394972;28;20049;-82
2023/11/18 12:41:36;;;;;;;1999.90;999.90;;;;;;;13.42;77.11;101588.91;10381131;28;20056;-82
2023/11/18 12:47:01;;;;;;;1999.90;999.90;;;;;;;13.73;76.68;101569.59;10380682;28;20481;-82
2023/11/18 12:52:08;;;;;;;1999.90;999.90;;;;;;;13.53;75.58;101541.78;10380817;28;20104;-82
2023/11/18 12:57:14;;;;;;;1999.90;999.90;;;;;;;13.58;77.20;101523.09;10379679;28;20100;-81
2023/11/18 13:02:19;;;;;;;1999.90;999.90;;;;;;;13.03;79.21;101490.28;10380575;28;20050;-81
2023/11/18 13:07:24;;;;;;;1999.90;999.90;;;;;;;13.75;77.00;101466.81;10379113;28;20050;-81
2023/11/18 13:12:28;;;;;;;1999.90;999.90;;;;;;;13.08;79.28;101432.16;10378701;28;20156;-82
2023/11/18 13:17:31;;;;;;;1999.90;999.90;;;;;;;13.67;79.03;101412.06;10362560;28;20133;-81
2023/11/18 13:22:33;;;;;;;1999.90;999.90;;;;;;;14.11;76.54;101391.81;10362316;28;20053;-81
2023/11/18 13:27:49;;;;;;;1999.90;999.90;;;;;;;13.58;76.11;101396.81;10379223;28;20085;-82
2023/11/18 13:32:52;;;;;;;1999.90;999.90;;;;;;;14.25;75.76;101409.38;10379157;28;20568;-84
2023/11/18 13:37:55;;;;;;;1999.90;999.90;;;;;;;14.25;74.08;101422.53;10377749;28;20053;-81
2023/11/18 13:43:08;;;;;;;1999.90;999.90;;;;;;;14.31;74.59;101407.19;10376778;28;20049;-83
2023/11/18 13:48:13;;;;;;;1999.90;999.90;;;;;;;14.12;76.22;101418.06;10377458;28;20088;-85
2023/11/18 13:53:16;;;;;;;1999.90;999.90;;;;;;;13.62;78.43;101403.59;10378136;28;20492;-86
2023/11/18 13:58:19;;;;;;;1999.90;999.90;;;;;;;13.29;78.26;101377.50;10377290;28;20482;-86
2023/11/18 14:03:23;;;;;;;1999.90;999.90;;;;;;;14.22;75.90;101360.41;10377717;28;20468;-84
2023/11/18 14:08:26;;;;;;;1999.90;999.90;;;;;;;13.30;80.28;101355.53;10376410;28;20049;-84
2023/11/18 14:13:30;;;;;;;1999.90;999.90;;;;;;;13.23;80.97;101326.13;10376626;28;20092;-84
2023/11/18 14:18:33;;;;;;;1999.90;999.90;;;;;;;14.03;77.93;101305.41;10377102;28;20403;-85
2023/11/18 14:23:37;;;;;;;1999.90;999.90;;;;;;;12.90;80.88;101303.53;10376160;28;20050;-82
2023/11/18 14:28:40;;;;;;;1999.90;999.90;;;;;;;13.62;79.61;101284.34;10375546;28;20066;-85
2023/11/18 14:33:42;;;;;;;1999.90;999.90;;;;;;;13.34;81.79;101271.09;10376913;28;20046;-87
2023/11/18 14:38:46;;;;;;;1999.90;999.90;;;;;;;13.38;81.83;101266.50;10375465;28;20577;-85
2023/11/18 14:43:50;;;;;;;1999.90;999.90;;;;;;;12.89;80.59;101240.53;10376771;28;20144;-86
2023/11/18 14:48:52;;;;;;;1999.90;999.90;;;;;;;13.20;79.69;101227.22;10375528;28;20050;-86
2023/11/18 14:53:54;;;;;;;1999.90;999.90;;;;;;;13.75;76.48;101222.09;10374818;28;20132;-86
2023/11/18 14:58:57;;;;;;;1999.90;999.90;;;;;;;13.94;79.32;101204.19;10374723;28;20056;-83
2023/11/18 15:03:59;;;;;;;1999.90;999.90;;;;;;;12.77;81.05;101190.41;10375659;28;20053;-85
2023/11/18 15:09:03;;;;;;;1999.90;999.90;;;;;;;13.39;79.02;101215.59;10375455;28;20540;-85
2023/11/18 15:14:07;;;;;;;1999.90;999.90;;;;;;;13.11;81.50;101195.41;10358354;28;20445;-84
2023/11/18 15:19:11;;;;;;;1999.90;999.90;;;;;;;13.61;79.49;101186.16;10358449;28;20101;-84
2023/11/18 15:24:14;;;;;;;1999.90;999.90;;;;;;;13.01;82.39;101177.56;10375585;28;20050;-84
2023/11/18 15:29:16;;;;;;;1999.90;999.90;;;;;;;13.49;81.15;101172.00;10374266;28;20050;-84
2023/11/18 15:34:19;;;;;;;1999.90;999.90;;;;;;;13.81;78.51;101168.25;10375281;28;20053;-86
2023/11/18 15:39:23;;;;;;;1999.90;999.90;;;;;;;13.17;80.80;101147.69;10375312;28;20057;-86
2023/11/18 15:44:28;;;;;;;1999.90;999.90;;;;;;;12.81;84.33;101125.41;10373924;28;20485;-84
2023/11/18 15:49:30;;;;;;;1999.90;999.90;;;;;;;13.94;79.93;101100.69;10375026;28;20472;-88
2023/11/18 15:54:33;;;;;;;1999.90;999.90;;;;;;;13.92;78.21;101094.69;10357171;28;20046;-85
2023/11/18 15:59:35;;;;;;;1999.90;999.90;;;;;;;13.34;81.02;101083.56;10374807;28;20080;-87
2023/11/18 16:04:38;;;;;;;1999.90;999.90;;;;;;;13.31;82.08;101068.78;10375774;28;20054;-84
2023/11/18 16:09:40;;;;;;;1999.90;999.90;;;;;;;14.26;79.01;101066.06;10381501;28;20136;-88
2023/11/18 16:14:42;;;;;;;1999.90;999.90;;;;;;;13.25;81.18;101050.78;10381287;28;20049;-86
2023/11/18 16:19:48;;;;;;;1999.90;999.90;;;;;;;13.48;80.79;101057.22;10381761;28;20084;-86
2023/11/18 16:24:50;;;;;;;1999.90;999.90;;;;;;;13.66;78.98;101056.94;10381345;28;20405;-85
2023/11/18 16:29:52;;;;;;;1999.90;999.90;;;;;;;13.15;81.08;101037.38;10397070;28;20485;-83
2023/11/18 16:34:55;;;;;;;1999.90;999.90;;;;;;;13.62;80.00;101029.16;10382159;28;20076;-79
2023/11/18 16:39:58;;;;;;;1999.90;999.90;;;;;;;13.48;82.12;101004.63;10380496;28;20050;-81
2023/11/18 16:45:01;;;;;;;1999.90;999.90;;;;;;;13.39;82.56;101015.72;10380290;28;20068;-82
2023/11/18 16:50:04;;;;;;;1999.90;999.90;;;;;;;13.44;84.31;100991.75;10381086;28;20096;-85
2023/11/18 16:55:08;;;;;;;1999.90;999.90;;;;;;;13.97;80.09;101016.25;10379740;28;20046;-83
2023/11/18 17:00:22;;;;;;;1999.90;999.90;;;;;;;14.52;78.71;101029.16;10380457;28;20100;-83
2023/11/18 17:05:27;;;;;;;1999.90;999.90;;;;;;;14.01;79.92;100972.13;10380292;28;20046;-80
2023/11/18 17:10:30;;;;;;;1999.90;999.90;;;;;;;14.09;81.97;100986.44;10379364;28;20409;-82
2023/11/18 17:15:33;;;;;;;1999.90;999.90;;;;;;;14.40;77.69;100970.28;10377252;28;20050;-84
2023/11/18 17:20:36;;;;;;;1999.90;999.90;;;;;;;13.49;82.86;100948.41;10378810;28;20060;-81
2023/11/18 17:25:38;;;;;;;1999.90;999.90;;;;;;;13.67;85.32;100940.25;10362111;28;20054;-82
2023/11/18 17:30:41;;;;;;;1999.90;999.90;;;;;;;14.56;80.85;100973.53;10379738;28;20049;-81
2023/11/18 17:35:44;;;;;;;1999.90;999.90;;;;;;;13.69;79.25;100962.84;10379830;28;20084;-81
2023/11/18 17:40:46;;;;;;;1999.90;999.90;;;;;;;14.45;81.14;100970.81;10379196;28;20053;-83
2023/11/18 17:45:49;;;;;;;1999.90;999.90;;;;;;;14.41;82.15;100967.53;10378142;28;20041;-82
2023/11/18 17:50:53;;;;;;;1999.90;999.90;;;;;;;14.52;80.93;100982.56;10378922;28;20485;-82
2023/11/18 17:55:55;;;;;;;1999.90;999.90;;;;;;;14.16;79.25;100978.13;10378731;28;20046;-83
2023/11/18 18:00:58;;;;;;;1999.90;999.90;;;;;;;14.31;83.44;100964.72;10378061;28;20556;-82
2023/11/18 18:06:00;;;;;;;1999.90;999.90;;;;;;;14.57;80.72;100969.09;10376544;28;20120;-81
2023/11/18 18:11:03;;;;;;;1999.90;999.90;;;;;;;14.60;81.94;100947.81;10376929;28;20056;-81
2023/11/18 18:16:06;;;;;;;1999.90;999.90;;;;;;;15.22;79.20;100944.16;10375780;28;20041;-81
2023/11/18 18:21:08;;;;;;;1999.90;999.90;;;;;;;15.24;77.53;100898.25;10376617;28;20046;-81
2023/11/18 18:26:11;;;;;;;1999.90;999.90;;;;;;;15.77;78.08;100928.63;10377386;28;20133;-81
2023/11/18 18:31:13;;;;;;;1999.90;999.90;;;;;;;16.02;77.10;100921.41;10375950;28;20053;-82
2023/11/18 18:36:16;;;;;;;1999.90;999.90;;;;;;;14.63;82.62;100934.44;10360270;28;20046;-84
2023/11/18 18:41:19;;;;;;;1999.90;999.90;;;;;;;15.08;82.29;100957.53;10375464;28;20501;-82
2023/11/18 18:46:21;;;;;;;1999.90;999.90;;;;;;;16.10;79.65;100942.78;10375468;28;20050;-82
2023/11/18 18:51:23;;;;;;;1999.90;999.90;;;;;;;15.81;79.94;100939.78;10375103;28;20103;-81
2023/11/18 18:56:26;;;;;;;1999.90;999.90;;;;;;;16.38;76.63;100920.31;10376283;28;20499;-81
2023/11/18 19:01:29;;;;;;;1999.90;999.90;;;;;;;16.62;76.03;100903.44;10375860;28;20065;-82
2023/11/18 19:06:32;;;;;;;1999.90;999.90;;;;;;;15.55;81.95;100909.13;10375714;28;20155;-81
2023/11/18 19:11:38;;;;;;;1999.90;999.90;;;;;;;15.95;78.45;100903.44;10375635;28;20049;-80
2023/11/18 19:16:41;;;;;;;1999.90;999.90;;;;;;;16.42;77.40;100903.22;10357844;28;20124;-82
2023/11/18 19:21:50;;;;;;;1999.90;999.90;;;;;;;16.43;79.50;100898.81;10375129;28;20117;-82
2023/11/18 19:26:54;;;;;;;1999.90;999.90;;;;;;;16.32;76.31;100887.31;10373775;28;20125;-81
2023/11/18 19:31:56;;;;;;;1999.90;999.90;;;;;;;16.02;83.50;100898.50;10373788;28;20401;-81
2023/11/18 19:36:58;;;;;;;1999.90;999.90;;;;;;;17.16;76.22;100883.16;10373382;28;20409;-80
2023/11/18 19:42:01;;;;;;;1999.90;999.90;;;;;;;16.28;82.06;100880.56;10374090;28;20207;-80
2023/11/18 19:47:03;;;;;;;1999.90;999.90;;;;;;;17.05;76.41;100892.84;10374447;28;20046;-80
2023/11/18 19:52:07;;;;;;;1999.90;999.90;;;;;;;16.53;82.62;100868.03;10374564;28;20073;-80
2023/11/18 19:57:09;;;;;;;1999.90;999.90;;;;;;;16.94;73.81;100884.94;10374220;28;20437;-79
2023/11/18 20:02:11;;;;;;;1999.90;999.90;;;;;;;16.82;78.87;100872.72;10373023;28;20049;-79
2023/11/18 20:07:15;;;;;;;1999.90;999.90;;;;;;;17.39;78.24;100860.88;10372929;28;20054;-79
2023/11/18 20:12:18;;;;;;;1999.90;999.90;;;;;;;17.32;78.52;100846.50;10372953;28;20128;-79
2023/11/18 20:17:20;;;;;;;1999.90;999.90;;;;;;;17.09;77.49;100833.41;10374138;28;20405;-80
2023/11/18 20:22:23;;;;;;;1999.90;999.90;;;;;;;17.12;78.20;100839.44;10406124;22;20053;-63
2023/11/18 20:27:26;;;;;;;1999.90;999.90;;;;;;;17.01;78.24;100846.47;10414282;28;20429;-63
2023/11/18 20:32:28;;;;;;;1999.90;999.90;;;;;;;17.26;75.74;100836.44;10414335;28;20053;-63
2023/11/18 20:37:31;;;;;;;1999.90;999.90;;;;;;;18.02;72.71;100830.78;10414676;28;20412;-63
2023/11/18 20:42:35;;;;;;;1999.90;999.90;;;;;;;17.73;75.58;100828.84;10414463;28;20046;-63
2023/11/18 20:47:37;;;;;;;1999.90;999.90;;;;;;;18.04;74.23;100839.47;10414080;28;20137;-63
2023/11/18 20:52:41;;;;;;;1999.90;999.90;;;;;;;18.17;76.26;100837.41;10418912;28;20100;-63
2023/11/18 20:57:44;;;;;;;1999.90;999.90;;;;;;;17.37;76.53;100844.31;10421463;28;20052;-63
2023/11/18 21:02:47;;;;;;;1999.90;999.90;;;;;;;17.52;78.85;100836.03;10403807;28;20080;-63
2023/11/18 21:07:49;;;;;;;1999.90;999.90;;;;;;;17.09;78.48;100836.06;10420799;28;20502;-63
2023/11/18 21:12:52;;;;;;;1999.90;999.90;;;;;;;17.92;76.86;100836.09;10420663;28;20485;-63
2023/11/18 21:17:54;;;;;;;1999.90;999.90;;;;;;;18.12;75.60;100822.88;10420774;28;20045;-66
2023/11/18 21:22:59;;;;;;;1999.90;999.90;;;;;;;17.50;78.73;100817.66;10420136;28;20061;-66
2023/11/18 21:28:04;;;;;;;1999.90;999.90;;;;;;;17.85;75.01;100812.88;10420576;28;20073;-66
2023/11/18 21:33:07;;;;;;;1999.90;999.90;;;;;;;16.97;81.45;100791.31;10420588;28;20057;-66
2023/11/18 21:38:10;;;;;;;1999.90;999.90;;;;;;;17.98;78.86;100774.59;10419816;28;20053;-66
2023/11/18 21:43:12;;;;;;;1999.90;999.90;;;;;;;18.06;80.26;100781.03;10402814;28;20049;-66
2023/11/18 21:48:14;;;;;;;1999.90;999.90;;;;;;;17.99;78.89;100775.47;10419319;28;20048;-66
2023/11/18 21:53:20;;;;;;;1999.90;999.90;;;;;;;17.09;79.48;100758.53;10419225;28;20415;-66
2023/11/18 21:58:23;;;;;;;1999.90;999.90;;;;;;;17.97;77.15;100753.53;10419272;28;20045;-66
2023/11/18 22:03:26;;;;;;;1999.90;999.90;;;;;;;18.36;78.67;100735.88;10418564;28;20492;-67